createdAt,value
2023-01-29T00:00:39.129Z,2.63
2023-01-29T00:03:43.009Z,2.39
2023-01-29T00:06:46.631Z,2.32
2023-01-29T00:09:53.447Z,2.24
2023-01-29T00:12:57.163Z,2.25
2023-01-29T00:16:03.240Z,2.15
2023-01-29T00:19:24.757Z,2.16
2023-01-29T00:22:37.529Z,2.08
2023-01-29T00:25:54.361Z,2.07
2023-01-29T00:29:00.658Z,2.19
2023-01-29T00:32:03.953Z,2.17
2023-01-29T00:35:19.926Z,2.07
2023-01-29T00:38:35.788Z,1.56
2023-01-29T00:42:03.645Z,1.87
2023-01-29T00:45:20.108Z,1.95
2023-01-29T00:48:36.016Z,1.82
2023-01-29T00:51:42.132Z,1.85
2023-01-29T00:54:48.281Z,1.69
2023-01-29T00:58:11.749Z,1.59
2023-01-29T01:01:49.915Z,1.55
2023-01-29T01:04:58.786Z,1.64
2023-01-29T01:08:31.590Z,1.54
2023-01-29T01:11:38.252Z,1.43
2023-01-29T01:14:58.586Z,1.37
2023-01-29T01:18:16.504Z,1.44
2023-01-29T01:21:39.890Z,1.36
2023-01-29T01:25:00.591Z,1.25
2023-01-29T01:28:22.946Z,1.34
2023-01-29T01:31:42.621Z,1.34
2023-01-29T01:34:46.047Z,1.42
2023-01-29T01:37:53.968Z,1.39
2023-01-29T01:41:09.506Z,1.21
2023-01-29T01:44:51.568Z,1.21
2023-01-29T01:48:07.619Z,1.38
2023-01-29T01:51:13.247Z,1.46
2023-01-29T01:54:40.448Z,1.30
2023-01-29T01:58:07.191Z,1.29
2023-01-29T02:01:35.313Z,1.18
2023-01-29T02:05:11.815Z,1.12
2023-01-29T02:08:34.203Z,1.48
2023-01-29T02:11:38.560Z,1.31
2023-01-29T02:14:43.714Z,1.41
2023-01-29T02:17:48.448Z,1.23
2023-01-29T02:21:31.362Z,0.93
2023-01-29T02:25:14.493Z,1.28
2023-01-29T02:28:32.544Z,0.99
2023-01-29T02:31:53.580Z,0.99
2023-01-29T02:35:51.444Z,0.90
2023-01-29T02:39:31.925Z,0.93
2023-01-29T02:42:40.908Z,0.85
2023-01-29T02:45:59.959Z,0.88
2023-01-29T02:49:41.462Z,1.03
2023-01-29T02:53:29.418Z,0.96
2023-01-29T02:57:04.244Z,0.93
2023-01-29T03:00:33.522Z,0.64
2023-01-29T03:03:41.942Z,1.01
2023-01-29T03:06:54.842Z,1.14
2023-01-29T03:10:44.834Z,1.14
2023-01-29T03:13:51.583Z,1.12
2023-01-29T03:16:55.827Z,0.96
2023-01-29T03:20:01.016Z,1.33
2023-01-29T03:23:51.886Z,1.48
2023-01-29T03:27:21.353Z,1.42
2023-01-29T03:31:03.571Z,1.40
2023-01-29T03:34:34.893Z,1.46
2023-01-29T03:37:48.512Z,1.55
2023-01-29T03:41:02.297Z,1.61
2023-01-29T03:44:37.285Z,1.70
2023-01-29T03:48:08.906Z,1.53
2023-01-29T03:51:22.224Z,1.70
2023-01-29T03:54:34.061Z,1.68
2023-01-29T03:57:46.824Z,1.80
2023-01-29T04:01:04.302Z,1.73
2023-01-29T04:04:29.624Z,1.69
2023-01-29T04:07:36.795Z,1.32
2023-01-29T04:10:43.938Z,1.57
2023-01-29T04:13:48.110Z,1.66
2023-01-29T04:17:21.061Z,1.72
2023-01-29T04:20:47.196Z,1.72
2023-01-29T04:24:03.094Z,1.86
2023-01-29T04:27:31.455Z,1.84
2023-01-29T04:31:10.873Z,1.37
2023-01-29T04:34:30.059Z,1.56
2023-01-29T04:38:15.979Z,1.63
2023-01-29T04:41:45.157Z,1.75
2023-01-29T04:44:58.035Z,1.34
2023-01-29T04:48:18.010Z,1.73
2023-01-29T04:51:43.507Z,1.68
2023-01-29T04:55:06.282Z,1.88
2023-01-29T04:58:40.524Z,1.65
2023-01-29T05:01:44.901Z,1.70
2023-01-29T05:04:50.584Z,1.70
2023-01-29T05:08:04.527Z,1.67
2023-01-29T05:11:18.588Z,1.71
2023-01-29T05:14:41.160Z,1.72
2023-01-29T05:18:07.297Z,1.50
2023-01-29T05:21:23.277Z,1.58
2023-01-29T05:24:43.071Z,1.41
2023-01-29T05:28:12.162Z,1.46
2023-01-29T05:31:15.594Z,1.37
2023-01-29T05:34:23.018Z,1.77
2023-01-29T05:37:31.363Z,1.54
2023-01-29T05:40:35.095Z,1.32
2023-01-29T05:43:39.616Z,1.53
2023-01-29T05:46:46.986Z,1.59
2023-01-29T05:49:53.307Z,1.39
2023-01-29T05:53:01.861Z,1.53
2023-01-29T05:56:09.164Z,1.68
2023-01-29T05:59:21.903Z,1.81
2023-01-29T06:02:45.264Z,1.55
2023-01-29T06:06:01.856Z,1.65
2023-01-29T06:09:18.767Z,1.38
2023-01-29T06:12:55.917Z,1.47
2023-01-29T06:16:17.826Z,1.44
2023-01-29T06:19:40.874Z,1.45
2023-01-29T06:23:02.815Z,1.72
2023-01-29T06:26:21.996Z,1.51
2023-01-29T06:29:37.718Z,1.49
2023-01-29T06:33:09.896Z,1.53
2023-01-29T06:36:32.913Z,1.58
2023-01-29T06:39:41.243Z,1.37
2023-01-29T06:43:03.639Z,1.38
2023-01-29T06:46:37.625Z,1.66
2023-01-29T06:50:05.252Z,1.50
2023-01-29T06:53:18.388Z,1.30
2023-01-29T06:56:41.618Z,1.54
2023-01-29T07:00:02.951Z,1.44
2023-01-29T07:03:25.588Z,1.09
2023-01-29T07:06:53.684Z,1.36
2023-01-29T07:10:05.158Z,1.61
2023-01-29T07:13:28.895Z,1.35
2023-01-29T07:17:02.030Z,1.13
2023-01-29T07:20:22.584Z,1.32
2023-01-29T07:23:43.900Z,1.77
2023-01-29T07:27:04.718Z,1.47
2023-01-29T07:30:22.056Z,1.21
2023-01-29T07:33:43.099Z,1.40
2023-01-29T07:36:54.840Z,1.61
2023-01-29T07:39:58.787Z,1.67
2023-01-29T07:43:11.457Z,1.66
2023-01-29T07:46:28.324Z,1.69
2023-01-29T07:49:42.391Z,1.89
2023-01-29T07:52:45.512Z,1.45
2023-01-29T07:55:54.200Z,1.67
2023-01-29T07:59:04.124Z,1.88
2023-01-29T08:02:12.431Z,1.80
2023-01-29T08:05:24.219Z,1.99
2023-01-29T08:08:32.186Z,1.91
2023-01-29T08:11:39.449Z,1.85
2023-01-29T08:14:44.434Z,1.90
2023-01-29T08:18:03.753Z,1.51
2023-01-29T08:21:16.803Z,1.77
2023-01-29T08:24:41.818Z,2.06
2023-01-29T08:28:07.958Z,2.05
2023-01-29T08:31:22.936Z,1.64
2023-01-29T08:34:52.508Z,1.61
2023-01-29T08:38:06.808Z,1.87
2023-01-29T08:41:33.548Z,1.82
2023-01-29T08:44:45.554Z,1.40
2023-01-29T08:48:07.361Z,1.53
2023-01-29T08:51:25.134Z,1.66
2023-01-29T08:54:43.467Z,1.68
2023-01-29T08:58:19.476Z,1.14
2023-01-29T09:01:38.876Z,1.38
2023-01-29T09:05:04.228Z,1.62
2023-01-29T09:08:29.903Z,1.44
2023-01-29T09:11:41.008Z,1.78
2023-01-29T09:14:46.991Z,1.89
2023-01-29T09:17:50.767Z,1.98
2023-01-29T09:20:58.839Z,1.84
2023-01-29T09:24:05.774Z,1.96
2023-01-29T09:27:14.243Z,1.49
2023-01-29T09:30:23.230Z,1.70
2023-01-29T09:33:40.183Z,1.79
2023-01-29T09:36:59.104Z,1.91
2023-01-29T09:40:35.491Z,1.77
2023-01-29T09:44:04.215Z,1.73
2023-01-29T09:47:15.542Z,2.12
2023-01-29T09:50:40.247Z,1.85
2023-01-29T09:54:08.385Z,1.51
2023-01-29T09:57:25.440Z,1.90
2023-01-29T10:00:49.256Z,1.84
2023-01-29T10:04:28.883Z,1.98
2023-01-29T10:07:48.112Z,1.61
2023-01-29T10:10:58.510Z,1.82
2023-01-29T10:14:38.235Z,1.32
2023-01-29T10:18:07.488Z,1.54
2023-01-29T10:21:32.231Z,1.95
2023-01-29T10:24:53.193Z,2.23
2023-01-29T10:28:00.686Z,1.96
2023-01-29T10:31:23.834Z,1.80
2023-01-29T10:34:42.601Z,1.94
2023-01-29T10:37:46.505Z,1.80
2023-01-29T10:41:11.013Z,2.03
2023-01-29T10:44:53.804Z,2.24
2023-01-29T10:48:15.186Z,1.79
2023-01-29T10:51:43.208Z,1.72
2023-01-29T10:54:56.805Z,1.74
2023-01-29T10:58:17.128Z,1.77
2023-01-29T11:01:27.217Z,2.01
2023-01-29T11:04:46.321Z,1.74
2023-01-29T11:08:09.597Z,1.77
2023-01-29T11:11:28.668Z,1.60
2023-01-29T11:14:38.205Z,1.75
2023-01-29T11:18:16.321Z,1.90
2023-01-29T11:21:30.152Z,1.92
2023-01-29T11:24:41.150Z,1.91
2023-01-29T11:28:13.092Z,1.57
2023-01-29T11:31:42.291Z,1.78
2023-01-29T11:35:07.918Z,1.44
2023-01-29T11:38:23.401Z,2.07
2023-01-29T11:41:47.227Z,1.93
2023-01-29T11:44:50.472Z,1.87
2023-01-29T11:48:05.043Z,2.07
2023-01-29T11:51:10.946Z,2.10
2023-01-29T11:54:33.237Z,2.00
2023-01-29T11:58:25.611Z,1.99
2023-01-29T12:01:42.875Z,2.01
2023-01-29T12:04:56.008Z,1.96
2023-01-29T12:08:02.806Z,2.13
2023-01-29T12:11:16.479Z,1.70
2023-01-29T12:14:39.776Z,1.97
2023-01-29T12:17:48.878Z,1.84
2023-01-29T12:21:18.717Z,2.14
2023-01-29T12:25:13.863Z,1.86
2023-01-29T12:28:50.425Z,1.95
2023-01-29T12:32:21.578Z,1.96
2023-01-29T12:35:35.670Z,1.80
2023-01-29T12:38:45.299Z,2.04
2023-01-29T12:42:04.532Z,2.08
2023-01-29T12:45:21.276Z,2.13
2023-01-29T12:48:37.728Z,2.13
2023-01-29T12:52:02.055Z,2.58
2023-01-29T12:55:56.742Z,2.70
2023-01-29T12:59:29.387Z,2.21
2023-01-29T13:03:18.802Z,2.27
2023-01-29T13:06:37.049Z,2.23
2023-01-29T13:09:46.556Z,2.22
2023-01-29T13:13:14.434Z,2.08
2023-01-29T13:16:29.547Z,1.87
2023-01-29T13:19:48.691Z,2.58
2023-01-29T13:22:54.735Z,2.39
2023-01-29T13:26:02.163Z,2.43
2023-01-29T13:29:05.669Z,2.09
2023-01-29T13:32:10.668Z,1.96
2023-01-29T13:35:36.725Z,1.54
2023-01-29T13:39:03.932Z,1.67
2023-01-29T13:42:24.119Z,2.00
2023-01-29T13:45:44.749Z,2.07
2023-01-29T13:48:58.613Z,2.57
2023-01-29T13:52:40.047Z,2.46
2023-01-29T13:55:47.124Z,2.19
2023-01-29T13:59:04.986Z,2.04
2023-01-29T14:02:45.573Z,2.26
2023-01-29T14:05:54.944Z,2.21
2023-01-29T14:09:00.760Z,1.93
2023-01-29T14:12:23.552Z,1.33
2023-01-29T14:15:32.618Z,1.45
2023-01-29T14:18:37.498Z,1.35
2023-01-29T14:22:03.625Z,0.99
2023-01-29T14:25:31.586Z,1.20
2023-01-29T14:28:41.284Z,1.18
2023-01-29T14:31:59.120Z,1.14
2023-01-29T14:35:10.457Z,1.17
2023-01-29T14:38:15.804Z,1.05
2023-01-29T14:41:42.415Z,0.92
2023-01-29T14:44:56.116Z,1.07
2023-01-29T14:48:02.204Z,1.14
2023-01-29T14:51:15.769Z,0.98
2023-01-29T14:54:33.842Z,0.63
2023-01-29T14:57:39.049Z,0.85
2023-01-29T15:00:46.445Z,0.79
2023-01-29T15:04:12.197Z,1.02
2023-01-29T15:07:40.348Z,0.56
2023-01-29T15:11:19.988Z,0.41
2023-01-29T15:14:36.862Z,0.63
2023-01-29T15:17:58.684Z,0.57
2023-01-29T15:21:05.830Z,0.57
2023-01-29T15:24:29.324Z,0.55
2023-01-29T15:27:56.571Z,0.49
2023-01-29T15:31:17.366Z,0.26
2023-01-29T15:34:23.769Z,0.35
2023-01-29T15:37:37.221Z,0.05
2023-01-29T15:41:03.388Z,0.20
2023-01-29T15:44:16.924Z,0.38
2023-01-29T15:47:32.618Z,0.50
2023-01-29T15:50:48.204Z,0.22
2023-01-29T15:53:58.202Z,0.39
2023-01-29T15:57:35.371Z,0.33
2023-01-29T16:00:53.132Z,0.41
2023-01-29T16:04:11.342Z,0.37
2023-01-29T16:07:35.131Z,0.55
2023-01-29T16:10:56.800Z,0.36
2023-01-29T16:14:18.811Z,0.37
2023-01-29T16:17:36.811Z,0.30
2023-01-29T16:20:45.793Z,0.16
2023-01-29T16:24:01.739Z,0.00
2023-01-29T16:27:15.106Z,0.12
2023-01-29T16:30:19.399Z,0.01
2023-01-29T16:33:28.213Z,-0.21
2023-01-29T16:36:34.926Z,-0.04
2023-01-29T16:39:47.773Z,-0.22
2023-01-29T16:43:37.537Z,-0.35
2023-01-29T16:46:51.414Z,-0.28
2023-01-29T16:50:46.358Z,-0.04
2023-01-29T16:54:23.611Z,-0.32
2023-01-29T16:57:33.745Z,-0.48
2023-01-29T17:00:44.796Z,-0.10
2023-01-29T17:04:26.935Z,-0.21
2023-01-29T17:07:46.300Z,-0.27
2023-01-29T17:10:50.048Z,-0.34
2023-01-29T17:14:06.931Z,-0.47
2023-01-29T17:17:45.963Z,-0.50
2023-01-29T17:20:57.067Z,-0.41
2023-01-29T17:24:20.863Z,-0.44
2023-01-29T17:27:34.572Z,-0.42
2023-01-29T17:31:05.182Z,-0.57
2023-01-29T17:34:23.942Z,-0.44
2023-01-29T17:37:46.698Z,-0.37
2023-01-29T17:41:09.935Z,-0.35
2023-01-29T17:44:33.863Z,-0.45
2023-01-29T17:47:44.476Z,-0.54
2023-01-29T17:51:10.826Z,-0.70
2023-01-29T17:54:42.691Z,-0.57
2023-01-29T17:57:52.787Z,-0.57
2023-01-29T18:01:02.412Z,-0.75
2023-01-29T18:04:06.926Z,-0.71
2023-01-29T18:07:13.780Z,-0.77
2023-01-29T18:10:20.861Z,-1.00
2023-01-29T18:13:24.533Z,-0.75
2023-01-29T18:16:38.701Z,-0.86
2023-01-29T18:20:00.669Z,-0.65
2023-01-29T18:23:12.526Z,-0.87
2023-01-29T18:26:35.730Z,-0.94
2023-01-29T18:29:59.888Z,-0.70
2023-01-29T18:33:15.722Z,-0.75
2023-01-29T18:36:52.238Z,-0.96
2023-01-29T18:40:21.489Z,-0.93
2023-01-29T18:43:28.288Z,-0.97
2023-01-29T18:46:52.649Z,-1.01
2023-01-29T18:50:10.835Z,-0.93
2023-01-29T18:53:27.646Z,-1.14
2023-01-29T18:57:04.269Z,-1.06
2023-01-29T19:00:25.173Z,-0.91
2023-01-29T19:03:49.619Z,-0.99
2023-01-29T19:07:12.890Z,-1.11
2023-01-29T19:10:34.697Z,-1.22
2023-01-29T19:13:57.695Z,-1.29
2023-01-29T19:17:20.982Z,-0.97
2023-01-29T19:20:42.787Z,-0.94
2023-01-29T19:23:58.731Z,-1.04
2023-01-29T19:27:18.616Z,-1.25
2023-01-29T19:30:47.718Z,-0.98
2023-01-29T19:33:58.967Z,-1.05
2023-01-29T19:37:25.517Z,-0.98
2023-01-29T19:40:32.814Z,-1.03
2023-01-29T19:43:41.908Z,-1.15
2023-01-29T19:46:52.539Z,-1.17
2023-01-29T19:50:08.748Z,-1.08
2023-01-29T19:53:35.139Z,-1.20
2023-01-29T19:56:45.067Z,-1.11
2023-01-29T19:59:52.587Z,-1.04
2023-01-29T20:03:03.172Z,-1.21
2023-01-29T20:06:11.469Z,-1.24
2023-01-29T20:09:15.406Z,-1.30
2023-01-29T20:12:20.907Z,-1.06
2023-01-29T20:15:24.254Z,-1.22
2023-01-29T20:18:36.785Z,-1.43
2023-01-29T20:21:42.010Z,-1.20
2023-01-29T20:24:58.955Z,-1.25
2023-01-29T20:28:18.979Z,-1.22
2023-01-29T20:31:35.642Z,-1.22
2023-01-29T20:34:39.565Z,-1.21
2023-01-29T20:37:44.298Z,-1.28
2023-01-29T20:40:51.827Z,-1.39
2023-01-29T20:44:08.400Z,-1.25
2023-01-29T20:47:20.311Z,-1.19
2023-01-29T20:50:24.309Z,-1.24
2023-01-29T20:53:52.348Z,-1.59
2023-01-29T20:57:29.243Z,-1.33
2023-01-29T21:00:58.074Z,-1.51
2023-01-29T21:04:19.322Z,-1.29
2023-01-29T21:07:41.320Z,-1.51
2023-01-29T21:11:05.218Z,-1.56
2023-01-29T21:14:33.325Z,-1.29
2023-01-29T21:17:36.363Z,-1.18
2023-01-29T21:20:41.281Z,-1.47
2023-01-29T21:23:52.376Z,-1.37
2023-01-29T21:27:01.820Z,-1.81
2023-01-29T21:30:06.720Z,-1.30
2023-01-29T21:33:11.047Z,-1.69
2023-01-29T21:36:29.178Z,-1.80
2023-01-29T21:39:49.324Z,-1.55
2023-01-29T21:43:11.543Z,-1.65
2023-01-29T21:46:32.427Z,-1.58
2023-01-29T21:49:55.401Z,-1.63
2023-01-29T21:53:11.461Z,-1.52
2023-01-29T21:56:25.364Z,-1.59
2023-01-29T21:59:29.500Z,-1.59
2023-01-29T22:02:38.492Z,-1.50
2023-01-29T22:05:50.254Z,-1.52
2023-01-29T22:09:13.099Z,-1.72
2023-01-29T22:12:41.360Z,-1.35
2023-01-29T22:15:55.838Z,-1.34
2023-01-29T22:19:03.651Z,-1.37
2023-01-29T22:22:19.933Z,-1.33
2023-01-29T22:25:32.391Z,-1.36
2023-01-29T22:28:38.879Z,-1.15
2023-01-29T22:31:49.439Z,-1.24
2023-01-29T22:34:53.607Z,-1.17
2023-01-29T22:38:05.625Z,-1.36
2023-01-29T22:41:27.071Z,-1.24
2023-01-29T22:44:43.270Z,-1.32
2023-01-29T22:47:58.753Z,-1.33
2023-01-29T22:51:11.976Z,-1.28
2023-01-29T22:54:15.990Z,-1.37
2023-01-29T22:57:34.371Z,-1.43
2023-01-29T23:00:52.317Z,-1.27
2023-01-29T23:04:17.954Z,-1.57
2023-01-29T23:07:41.111Z,-1.29
2023-01-29T23:11:14.524Z,-1.38
2023-01-29T23:14:37.774Z,-1.25
2023-01-29T23:18:00.960Z,-1.62
2023-01-29T23:21:40.039Z,-1.63
2023-01-29T23:25:16.101Z,-1.56
2023-01-29T23:28:41.980Z,-1.45
2023-01-29T23:32:03.959Z,-1.68
2023-01-29T23:35:27.948Z,-1.62
2023-01-29T23:38:44.284Z,-1.51
2023-01-29T23:42:08.072Z,-1.53
2023-01-29T23:45:29.129Z,-1.38
2023-01-29T23:48:53.755Z,-1.31
2023-01-29T23:52:04.339Z,-1.49
2023-01-29T23:55:25.516Z,-1.59
2023-01-29T23:59:03.073Z,-1.59
